Itaguaje, Brazil
Current Conditions -  °F | °C
As of 7:00 AM on Monday 24 Nov 2014 (Local Time) from SBDN Reporting Station
Overcast Overcast  
Wind Chill: 72°   Ceiling: 700
Heat Index: 72°   Visibility: 6mi
Dew Point: 68°   Wind: 8mph
Humidity: 88%   Direction: 140°SE
Pressure: 29.88"   Gusts: NA
Location:  22.62°S, 51.97°W
Report Text: SBDN 240900Z 14007KT 9999 BKN007 OVC100 22/20 Q1012
Loading
Personal Weather Stations






























Interactive Weather Map New forecast layout! Learn more

10-Day Weather Forecast

Advertisements
Track Severe Weather on mobile